Time;durP1;ratioP1;P1;durP2;ratioP2;P2;SDS_P1;SDS_P2;PMS_P1;PMS_P2;Temp;Humidity;BMP_temperature;BMP_pressure;BME280_temperature;BME280_humidity;BME280_pressure;Samples;Min_cycle;Max_cycle;Signal;HPM_P1;HPM_P2
2023/10/06 00:00:35;;;;;;;25.98;18.27;;;13.90;99.90;;;;;;5038499;28;20021;-57
2023/10/06 00:03:05;;;;;;;25.63;17.58;;;13.90;99.90;;;;;;5041086;28;20108;-57
2023/10/06 00:05:34;;;;;;;23.20;15.40;;;14.00;99.90;;;;;;5047595;28;20025;-57
2023/10/06 00:08:00;;;;;;;23.85;14.95;;;14.00;99.90;;;;;;5035079;28;20514;-57
2023/10/06 00:10:31;;;;;;;25.67;16.70;;;13.90;99.90;;;;;;5042412;28;20030;-57
2023/10/06 00:12:59;;;;;;;26.92;15.85;;;13.90;99.90;;;;;;5039867;28;20518;-57
2023/10/06 00:15:35;;;;;;;25.20;16.45;;;14.00;99.90;;;;;;5035329;28;20029;-57
2023/10/06 00:18:07;;;;;;;30.35;19.58;;;13.90;99.90;;;;;;5035707;28;20039;-57
2023/10/06 00:20:42;;;;;;;25.40;16.30;;;14.00;99.90;;;;;;5037751;28;20025;-57
2023/10/06 00:23:13;;;;;;;26.15;16.75;;;14.00;99.90;;;;;;5036201;28;20545;-56
2023/10/06 00:25:42;;;;;;;27.90;17.73;;;14.00;99.90;;;;;;5038295;28;20071;-56
2023/10/06 00:28:16;;;;;;;31.20;17.77;;;14.00;99.90;;;;;;5035213;28;20033;-56
2023/10/06 00:30:42;;;;;;;30.63;18.10;;;14.00;99.90;;;;;;5038582;28;20036;-56
2023/10/06 00:33:07;;;;;;;23.65;16.17;;;14.00;99.90;;;;;;5035377;28;20021;-56
2023/10/06 00:35:35;;;;;;;24.50;16.80;;;14.00;99.90;;;;;;5037155;28;20123;-56
2023/10/06 00:38:12;;;;;;;22.35;15.35;;;14.00;99.90;;;;;;5041005;28;20036;-56
2023/10/06 00:40:44;;;;;;;29.30;17.85;;;14.00;99.90;;;;;;5038167;28;20041;-56
2023/10/06 00:43:15;;;;;;;32.20;19.48;;;14.00;99.90;;;;;;5039166;28;20033;-56
2023/10/06 00:45:46;;;;;;;23.17;16.02;;;13.90;99.90;;;;;;5044724;28;20024;-55
2023/10/06 00:48:14;;;;;;;33.80;18.80;;;13.90;99.90;;;;;;5042602;28;20040;-55
2023/10/06 00:50:43;;;;;;;30.38;18.85;;;13.90;99.90;;;;;;5039028;28;20030;-56
2023/10/06 00:53:13;;;;;;;27.48;17.42;;;13.90;99.90;;;;;;5042270;28;20083;-55
2023/10/06 00:55:39;;;;;;;29.42;18.25;;;13.80;99.90;;;;;;5048666;28;20017;-57
2023/10/06 00:58:10;;;;;;;41.00;17.40;;;13.80;99.90;;;;;;5043327;28;20441;-56
2023/10/06 01:00:37;;;;;;;30.42;16.00;;;13.70;99.90;;;;;;5039803;28;20075;-57
2023/10/06 01:03:14;;;;;;;25.63;14.75;;;13.70;99.90;;;;;;5046107;28;20041;-57
2023/10/06 01:05:44;;;;;;;31.80;17.52;;;13.60;99.90;;;;;;5039670;28;20483;-56
2023/10/06 01:08:11;;;;;;;30.33;16.52;;;13.60;99.90;;;;;;5037657;28;20068;-57
2023/10/06 01:10:38;;;;;;;24.20;15.00;;;13.60;99.90;;;;;;5044930;28;20111;-57
2023/10/06 01:13:11;;;;;;;32.42;16.63;;;13.50;99.90;;;;;;5039513;28;20616;-57
2023/10/06 01:15:45;;;;;;;27.40;15.30;;;13.50;99.90;;;;;;5048026;28;20025;-57
2023/10/06 01:18:19;;;;;;;25.90;14.35;;;13.50;99.90;;;;;;5038804;28;20132;-57
2023/10/06 01:20:46;;;;;;;34.55;15.20;;;13.40;99.90;;;;;;5049167;28;20117;-57
2023/10/06 01:23:21;;;;;;;29.15;15.60;;;13.40;99.90;;;;;;5046454;28;20108;-56
2023/10/06 01:25:54;;;;;;;30.50;14.95;;;13.40;99.90;;;;;;5046923;28;20032;-57
2023/10/06 01:28:22;;;;;;;23.65;13.20;;;13.40;99.90;;;;;;5051413;28;20043;-56
2023/10/06 01:30:50;;;;;;;19.92;13.38;;;13.40;99.90;;;;;;5045079;28;20372;-56
2023/10/06 01:33:16;;;;;;;25.88;13.57;;;13.30;99.90;;;;;;5046514;28;20434;-56
2023/10/06 01:35:42;;;;;;;23.70;13.95;;;13.30;99.90;;;;;;5042809;28;20112;-57
2023/10/06 01:38:19;;;;;;;21.08;12.55;;;13.30;99.90;;;;;;5039406;28;20025;-56
2023/10/06 01:40:50;;;;;;;24.33;13.15;;;13.30;99.90;;;;;;5044168;28;20490;-56
2023/10/06 01:43:16;;;;;;;22.58;12.98;;;13.20;99.90;;;;;;5042944;28;20300;-56
2023/10/06 01:45:44;;;;;;;19.60;13.23;;;13.20;99.90;;;;;;5040926;28;20026;-57
2023/10/06 01:50:42;;;;;;;31.13;13.60;;;13.20;99.90;;;;;;5046008;28;20048;-57
2023/10/06 01:53:16;;;;;;;25.60;13.75;;;13.20;99.90;;;;;;5044421;28;20024;-57
2023/10/06 01:55:42;;;;;;;17.65;12.30;;;13.10;99.90;;;;;;5046999;28;20025;-57
2023/10/06 01:58:11;;;;;;;19.15;11.85;;;13.10;99.90;;;;;;5043912;28;20029;-57
2023/10/06 02:00:37;;;;;;;28.83;12.77;;;13.10;99.90;;;;;;5044090;28;20645;-57
2023/10/06 02:03:04;;;;;;;16.15;11.57;;;13.00;99.90;;;;;;5041652;28;20082;-57
2023/10/06 02:05:29;;;;;;;21.58;11.95;;;13.00;99.90;;;;;;5043105;28;20540;-57
2023/10/06 02:08:00;;;;;;;30.05;15.13;;;13.00;99.90;;;;;;5043248;28;20033;-57
2023/10/06 02:10:26;;;;;;;27.08;13.45;;;13.00;99.90;;;;;;5041981;28;20045;-57
2023/10/06 02:12:52;;;;;;;20.02;12.82;;;13.00;99.90;;;;;;5042382;28;20017;-57
2023/10/06 02:15:18;;;;;;;26.33;15.27;;;12.90;99.90;;;;;;5042325;28;20039;-57
2023/10/06 02:17:44;;;;;;;27.83;15.95;;;12.90;99.90;;;;;;5054120;28;20025;-57
2023/10/06 02:20:28;;;;;;;28.88;16.73;;;12.80;99.90;;;;;;5042542;28;20576;-57
2023/10/06 02:22:57;;;;;;;31.38;17.58;;;12.80;99.90;;;;;;5046420;28;20072;-57
2023/10/06 02:25:25;;;;;;;32.45;17.25;;;12.70;99.90;;;;;;5042524;28;20048;-57
2023/10/06 02:27:51;;;;;;;24.38;16.40;;;12.70;99.90;;;;;;5045268;28;20036;-56
2023/10/06 02:30:19;;;;;;;28.05;17.17;;;12.60;99.90;;;;;;5049905;28;20021;-56
2023/10/06 02:32:45;;;;;;;36.72;17.88;;;12.60;99.90;;;;;;5044844;28;20014;-57
2023/10/06 02:35:14;;;;;;;28.70;18.08;;;12.60;99.90;;;;;;5040995;28;20090;-57
2023/10/06 02:37:40;;;;;;;28.55;18.52;;;12.50;99.90;;;;;;5041562;28;20116;-56
2023/10/06 02:40:11;;;;;;;30.85;18.95;;;12.50;99.90;;;;;;5045436;28;20100;-57
2023/10/06 02:42:43;;;;;;;30.10;18.27;;;12.40;99.90;;;;;;5042508;28;20483;-56
2023/10/06 02:45:16;;;;;;;25.25;17.17;;;12.40;99.90;;;;;;5041341;28;20112;-56
2023/10/06 02:47:41;;;;;;;29.15;18.15;;;12.40;99.90;;;;;;5043242;28;20483;-57
2023/10/06 02:50:12;;;;;;;27.17;17.10;;;12.40;99.90;;;;;;5045413;28;20036;-57
2023/10/06 02:52:41;;;;;;;29.25;17.67;;;12.30;99.90;;;;;;5047340;28;20024;-57
2023/10/06 02:55:11;;;;;;;27.70;16.65;;;12.30;99.90;;;;;;5040799;28;20479;-57
2023/10/06 02:57:38;;;;;;;26.52;16.63;;;12.30;99.90;;;;;;5043902;28;20527;-57
2023/10/06 03:00:32;;;;;;;29.75;16.25;;;12.30;99.90;;;;;;5040921;28;20033;-58
2023/10/06 03:03:03;;;;;;;25.95;14.75;;;12.30;99.90;;;;;;5043122;28;20032;-57
2023/10/06 03:05:39;;;;;;;28.45;15.50;;;12.30;99.90;;;;;;5040036;28;20026;-56
2023/10/06 03:08:11;;;;;;;29.45;15.02;;;12.20;99.90;;;;;;5039404;28;20390;-56
2023/10/06 03:10:44;;;;;;;25.13;14.05;;;12.20;99.90;;;;;;5039926;28;20056;-56
2023/10/06 03:13:16;;;;;;;27.15;13.68;;;12.30;99.90;;;;;;5047682;28;20247;-56
2023/10/06 03:15:48;;;;;;;21.88;12.73;;;12.30;99.90;;;;;;5037464;28;20075;-57
2023/10/06 03:18:15;;;;;;;28.27;13.60;;;12.30;99.90;;;;;;5041927;28;20029;-57
2023/10/06 03:20:47;;;;;;;23.52;12.35;;;12.30;99.90;;;;;;5042328;28;20021;-57
2023/10/06 03:23:27;;;;;;;24.08;12.45;;;12.30;99.90;;;;;;5038015;28;20028;-57
2023/10/06 03:25:53;;;;;;;18.75;11.73;;;12.30;99.90;;;;;;5044501;28;20021;-57
2023/10/06 03:28:20;;;;;;;22.83;10.85;;;12.30;99.90;;;;;;5041340;28;20025;-57
2023/10/06 03:30:49;;;;;;;26.17;11.55;;;12.30;99.90;;;;;;5040979;28;20022;-57
2023/10/06 03:33:19;;;;;;;19.63;10.93;;;12.20;99.90;;;;;;5042285;28;20021;-57
2023/10/06 03:35:48;;;;;;;20.92;10.73;;;12.30;99.90;;;;;;5040346;28;20213;-58
2023/10/06 03:40:53;;;;;;;18.58;11.00;;;12.20;99.90;;;;;;5043845;28;20037;-57
2023/10/06 03:46:03;;;;;;;18.13;10.15;;;12.20;99.90;;;;;;5036911;28;20224;-57
2023/10/06 03:48:29;;;;;;;19.05;9.68;;;12.20;99.90;;;;;;5042862;28;20033;-57
2023/10/06 03:50:55;;;;;;;19.40;10.50;;;12.20;99.90;;;;;;5033975;28;20075;-56
2023/10/06 03:53:23;;;;;;;25.52;10.60;;;12.20;99.90;;;;;;5044105;28;20025;-56
2023/10/06 03:55:49;;;;;;;18.63;9.32;;;12.30;99.90;;;;;;5043570;28;20071;-56
2023/10/06 03:58:16;;;;;;;18.00;9.75;;;12.30;99.90;;;;;;5038574;28;20033;-56
2023/10/06 04:00:49;;;;;;;22.92;8.32;;;12.20;99.90;;;;;;5040519;28;20026;-57
2023/10/06 04:03:17;;;;;;;14.23;8.32;;;12.30;99.90;;;;;;5039631;28;20049;-57
2023/10/06 04:05:50;;;;;;;18.77;8.95;;;12.30;99.90;;;;;;5041033;28;20372;-57
2023/10/06 04:08:20;;;;;;;19.20;8.45;;;12.30;99.90;;;;;;5033968;28;20049;-57
2023/10/06 04:10:53;;;;;;;23.17;9.73;;;12.20;99.90;;;;;;5042633;28;20030;-57
2023/10/06 04:13:20;;;;;;;21.92;10.40;;;12.20;99.90;;;;;;5046579;28;20096;-57
2023/10/06 04:15:49;;;;;;;20.13;9.73;;;12.20;99.90;;;;;;5039442;28;20028;-57
2023/10/06 04:18:21;;;;;;;20.55;9.68;;;12.20;99.90;;;;;;5039097;28;20060;-57
2023/10/06 04:20:46;;;;;;;22.95;9.90;;;12.20;99.90;;;;;;5045190;28;20017;-57
2023/10/06 04:23:13;;;;;;;19.73;10.20;;;12.10;99.90;;;;;;5049603;28;20031;-57
2023/10/06 04:25:42;;;;;;;22.40;12.52;;;12.10;99.90;;;;;;5046963;28;20017;-57
2023/10/06 04:28:11;;;;;;;19.45;10.23;;;12.10;99.90;;;;;;5047535;28;20040;-58
2023/10/06 04:30:37;;;;;;;19.33;9.13;;;12.10;99.90;;;;;;5043729;28;20021;-57
2023/10/06 04:33:08;;;;;;;19.58;9.55;;;12.10;99.90;;;;;;5046733;28;20033;-57
2023/10/06 04:35:34;;;;;;;21.98;9.82;;;12.20;99.90;;;;;;5041535;28;20068;-57
2023/10/06 04:38:05;;;;;;;14.60;8.23;;;12.20;99.90;;;;;;5048168;28;20048;-58
2023/10/06 04:40:32;;;;;;;20.45;8.75;;;12.20;99.90;;;;;;5042840;28;20068;-58
2023/10/06 04:42:58;;;;;;;21.95;8.90;;;12.20;99.90;;;;;;5042682;28;20029;-57
2023/10/06 04:45:24;;;;;;;18.35;8.40;;;12.30;99.90;;;;;;5047693;28;20550;-57
2023/10/06 04:47:50;;;;;;;13.80;6.93;;;12.30;99.90;;;;;;5042658;28;20037;-57
2023/10/06 04:50:16;;;;;;;15.43;7.90;;;12.30;99.90;;;;;;5041835;28;20033;-58
2023/10/06 04:52:44;;;;;;;8.95;6.50;;;12.30;99.90;;;;;;5043480;28;20553;-58
2023/10/06 04:55:13;;;;;;;20.83;8.48;;;12.30;99.90;;;;;;5050942;28;20498;-57
2023/10/06 04:57:40;;;;;;;20.38;8.25;;;12.30;99.90;;;;;;5047479;28;20026;-57
2023/10/06 05:00:13;;;;;;;15.82;7.40;;;12.30;99.90;;;;;;5041732;28;20018;-57
2023/10/06 05:02:47;;;;;;;17.50;7.95;;;12.30;99.90;;;;;;5043089;28;20479;-59
2023/10/06 05:05:21;;;;;;;14.70;7.38;;;12.30;99.90;;;;;;5050773;28;20470;-58
2023/10/06 05:07:48;;;;;;;17.70;7.65;;;12.30;99.90;;;;;;5045260;28;20030;-59
2023/10/06 05:10:16;;;;;;;12.07;7.03;;;12.30;99.90;;;;;;5036496;28;20087;-58
2023/10/06 05:12:42;;;;;;;18.73;7.82;;;12.40;99.90;;;;;;5047343;28;20456;-58
2023/10/06 05:15:09;;;;;;;24.00;7.50;;;12.40;99.90;;;;;;5046574;28;20025;-58
2023/10/06 05:17:35;;;;;;;12.55;7.60;;;12.30;99.90;;;;;;5051210;28;21374;-58
2023/10/06 05:20:02;;;;;;;13.02;7.25;;;12.30;99.90;;;;;;5041538;28;20108;-58
2023/10/06 05:22:27;;;;;;;18.42;7.35;;;12.40;99.90;;;;;;5046668;28;20513;-58
2023/10/06 05:24:53;;;;;;;14.70;7.07;;;12.40;99.90;;;;;;5050789;28;20025;-59
2023/10/06 05:27:19;;;;;;;17.83;8.18;;;12.40;99.90;;;;;;5046601;28;20058;-59
2023/10/06 05:29:46;;;;;;;16.67;7.25;;;12.40;99.90;;;;;;5043657;28;20036;-59
2023/10/06 05:32:12;;;;;;;20.55;7.45;;;12.40;99.90;;;;;;5038433;28;20022;-59
2023/10/06 05:34:40;;;;;;;15.98;6.00;;;12.40;99.90;;;;;;5048300;28;20021;-60
2023/10/06 05:37:08;;;;;;;16.67;8.00;;;12.40;99.90;;;;;;5043059;28;20554;-60
2023/10/06 05:39:34;;;;;;;16.05;6.82;;;12.40;99.90;;;;;;5039826;28;20070;-60
2023/10/06 05:41:59;;;;;;;23.55;7.25;;;12.40;99.90;;;;;;5043887;28;20028;-60
2023/10/06 05:44:25;;;;;;;17.90;7.28;;;12.40;99.90;;;;;;5044533;28;20043;-60
2023/10/06 05:46:50;;;;;;;19.52;7.65;;;12.40;99.90;;;;;;5046767;28;20055;-60
2023/10/06 05:49:21;;;;;;;13.68;7.22;;;12.40;99.90;;;;;;5046853;28;20494;-60
2023/10/06 05:51:46;;;;;;;13.32;6.60;;;12.40;99.90;;;;;;5039487;28;20490;-60
2023/10/06 05:54:21;;;;;;;17.90;6.95;;;12.40;99.90;;;;;;5048662;28;20035;-60
2023/10/06 05:56:48;;;;;;;14.65;6.50;;;12.50;99.90;;;;;;5045860;28;20351;-60
2023/10/06 05:59:18;;;;;;;13.02;6.70;;;12.50;99.90;;;;;;5047110;28;20017;-60
2023/10/06 06:01:55;;;;;;;12.13;6.50;;;12.50;99.90;;;;;;5041664;28;20021;-60
2023/10/06 06:04:27;;;;;;;16.65;6.85;;;12.50;99.90;;;;;;5042588;28;20033;-60
2023/10/06 06:06:56;;;;;;;15.20;7.05;;;12.50;99.90;;;;;;5047227;28;20095;-59
2023/10/06 06:09:25;;;;;;;12.55;6.45;;;12.50;99.90;;;;;;5045248;28;20060;-60
2023/10/06 06:11:51;;;;;;;13.20;5.75;;;12.60;99.90;;;;;;5046676;28;20386;-59
2023/10/06 06:14:20;;;;;;;11.73;6.05;;;12.60;99.90;;;;;;5044729;28;20049;-59
2023/10/06 06:16:46;;;;;;;12.57;5.95;;;12.60;99.90;;;;;;5045022;28;20025;-60
2023/10/06 06:19:11;;;;;;;13.48;5.78;;;12.60;99.90;;;;;;5044281;28;20449;-60
2023/10/06 06:21:38;;;;;;;18.15;6.53;;;12.70;99.90;;;;;;5037714;28;20057;-60
2023/10/06 06:24:07;;;;;;;12.88;5.82;;;12.70;99.90;;;;;;5039833;28;20111;-60
2023/10/06 06:26:36;;;;;;;12.15;6.20;;;12.70;99.90;;;;;;5045372;28;20072;-60
2023/10/06 06:29:03;;;;;;;12.90;6.13;;;12.80;99.90;;;;;;5043721;28;20025;-60
2023/10/06 06:31:32;;;;;;;12.10;5.85;;;12.80;99.90;;;;;;5044099;28;20029;-60
2023/10/06 06:33:59;;;;;;;14.20;5.28;;;12.90;99.90;;;;;;5041531;28;20021;-60
2023/10/06 06:36:31;;;;;;;10.02;5.97;;;12.90;99.90;;;;;;5045873;28;20056;-60
2023/10/06 06:38:58;;;;;;;11.35;5.40;;;12.90;99.90;;;;;;5041607;28;20020;-60
2023/10/06 06:41:24;;;;;;;15.85;6.70;;;13.00;99.90;;;;;;5041747;28;20048;-60
2023/10/06 06:43:54;;;;;;;14.80;5.93;;;13.00;99.90;;;;;;5041203;28;20048;-60
2023/10/06 06:46:20;;;;;;;13.98;5.68;;;13.00;99.90;;;;;;5042856;28;20052;-60
2023/10/06 06:48:46;;;;;;;17.52;5.75;;;13.00;99.90;;;;;;5043747;28;20495;-60
2023/10/06 06:51:12;;;;;;;10.00;4.95;;;13.00;99.90;;;;;;5041219;28;20057;-60
2023/10/06 06:53:39;;;;;;;14.13;5.32;;;13.10;99.90;;;;;;5045217;28;20494;-60
2023/10/06 06:56:05;;;;;;;12.85;5.45;;;13.10;99.90;;;;;;5048248;28;20055;-60
2023/10/06 06:58:32;;;;;;;17.83;5.65;;;13.10;99.90;;;;;;5044231;28;20051;-60
2023/10/06 07:00:58;;;;;;;12.90;5.18;;;13.20;99.90;;;;;;5040853;28;20023;-60
2023/10/06 07:03:24;;;;;;;13.90;5.60;;;13.20;99.90;;;;;;5039859;28;20037;-60
2023/10/06 07:05:50;;;;;;;12.43;5.00;;;13.30;99.90;;;;;;5041100;28;20025;-60
2023/10/06 07:08:16;;;;;;;14.35;5.70;;;13.40;99.90;;;;;;5045522;28;20017;-60
2023/10/06 07:10:52;;;;;;;11.63;4.88;;;13.40;99.90;;;;;;5046368;28;20028;-60
2023/10/06 07:13:22;;;;;;;16.65;5.97;;;13.50;99.90;;;;;;5041640;28;20017;-60
2023/10/06 07:15:50;;;;;;;11.38;5.10;;;13.50;99.90;;;;;;5037038;28;20021;-60
2023/10/06 07:18:16;;;;;;;8.60;5.18;;;13.60;99.90;;;;;;5040228;28;20034;-60
2023/10/06 07:20:44;;;;;;;9.50;5.07;;;13.70;99.90;;;;;;5043185;28;20028;-60
2023/10/06 07:23:09;;;;;;;11.23;5.18;;;13.90;99.90;;;;;;5041847;28;20025;-60
2023/10/06 07:25:35;;;;;;;12.32;5.10;;;14.10;99.90;;;;;;5048997;28;20032;-60
2023/10/06 07:28:00;;;;;;;21.05;6.40;;;14.20;99.90;;;;;;5047444;28;20091;-60
2023/10/06 07:30:28;;;;;;;11.68;5.07;;;14.30;99.90;;;;;;5037754;28;20127;-60
2023/10/06 07:32:54;;;;;;;13.30;5.28;;;14.30;99.90;;;;;;5045278;28;20025;-60
2023/10/06 07:35:27;;;;;;;11.43;4.28;;;14.30;99.90;;;;;;5047881;28;20116;-60
2023/10/06 07:37:53;;;;;;;16.48;4.43;;;14.30;99.90;;;;;;5046614;28;20105;-60
2023/10/06 07:40:21;;;;;;;11.27;5.25;;;14.40;99.90;;;;;;5040665;28;20193;-60
2023/10/06 07:42:48;;;;;;;13.13;4.93;;;14.40;99.90;;;;;;5043486;28;20026;-60
2023/10/06 07:45:14;;;;;;;11.15;4.82;;;14.50;99.90;;;;;;5041058;28;20094;-60
2023/10/06 07:47:42;;;;;;;10.13;4.38;;;14.40;99.90;;;;;;5041116;28;20474;-60
2023/10/06 07:50:14;;;;;;;12.48;6.20;;;14.50;99.90;;;;;;5043362;28;20398;-60
2023/10/06 07:52:41;;;;;;;10.45;4.80;;;14.50;99.90;;;;;;5040373;28;20028;-60
2023/10/06 07:55:09;;;;;;;12.40;4.28;;;14.70;99.90;;;;;;5044521;28;20024;-60
2023/10/06 07:57:36;;;;;;;12.25;4.43;;;14.80;99.90;;;;;;5052483;28;20035;-60
2023/10/06 08:00:06;;;;;;;9.70;4.40;;;14.90;99.90;;;;;;5050396;28;20052;-60
2023/10/06 08:02:33;;;;;;;10.65;4.28;;;15.10;99.90;;;;;;5042720;28;20033;-60
2023/10/06 08:04:59;;;;;;;11.65;3.97;;;15.20;99.90;;;;;;5051559;28;20048;-60
2023/10/06 08:07:28;;;;;;;14.73;4.28;;;15.30;99.90;;;;;;5062345;28;20020;-60
2023/10/06 08:10:03;;;;;;;13.77;4.32;;;15.40;99.90;;;;;;5054248;28;20013;-60
2023/10/06 08:12:28;;;;;;;8.80;3.67;;;15.30;99.90;;;;;;5045633;28;20394;-60
2023/10/06 08:14:54;;;;;;;12.82;5.03;;;15.40;99.90;;;;;;5049760;28;20025;-60
2023/10/06 08:17:20;;;;;;;12.10;3.72;;;15.60;99.90;;;;;;5054577;28;20119;-60
2023/10/06 08:19:46;;;;;;;10.02;3.60;;;15.70;99.90;;;;;;5048839;28;20279;-60
2023/10/06 08:22:12;;;;;;;11.82;3.92;;;15.90;99.90;;;;;;5051406;28;20025;-60
2023/10/06 08:24:38;;;;;;;12.88;4.30;;;15.90;99.90;;;;;;5050242;28;20528;-60
2023/10/06 08:27:06;;;;;;;7.88;3.65;;;16.00;99.90;;;;;;5049790;28;20028;-60
2023/10/06 08:29:33;;;;;;;10.43;3.55;;;16.00;99.90;;;;;;5053121;28;20104;-60
2023/10/06 08:31:58;;;;;;;12.05;4.28;;;16.20;99.90;;;;;;5048398;28;20040;-60
2023/10/06 08:34:25;;;;;;;11.15;3.58;;;16.40;99.90;;;;;;5044657;28;20139;-60
2023/10/06 08:36:51;;;;;;;9.38;3.42;;;16.60;99.90;;;;;;5051932;28;20033;-60
2023/10/06 08:39:17;;;;;;;7.85;3.17;;;17.30;99.90;;;;;;5051053;28;20022;-60
2023/10/06 08:41:44;;;;;;;4.72;2.70;;;18.20;99.90;;;;;;5049037;28;20039;-60
2023/10/06 08:44:14;;;;;;;12.27;3.83;;;18.40;99.90;;;;;;5047035;28;20345;-60
2023/10/06 08:46:44;;;;;;;5.97;2.78;;;18.30;99.90;;;;;;5048062;28;20025;-61
2023/10/06 08:49:19;;;;;;;7.97;3.95;;;18.70;99.90;;;;;;5043107;28;20116;-61
2023/10/06 08:51:49;;;;;;;6.03;2.90;;;19.30;99.90;;;;;;5047824;28;20029;-61
2023/10/06 08:54:16;;;;;;;8.40;2.95;;;19.50;99.90;;;;;;5040535;28;20017;-61
2023/10/06 08:56:41;;;;;;;10.45;3.40;;;19.00;99.90;;;;;;5054249;28;20029;-60
2023/10/06 08:59:07;;;;;;;13.50;3.17;;;18.60;99.90;;;;;;5041539;28;20025;-60
2023/10/06 09:01:35;;;;;;;9.02;3.28;;;18.50;99.90;;;;;;5041260;28;20414;-61
2023/10/06 09:04:04;;;;;;;8.90;3.20;;;18.80;99.90;;;;;;5033844;28;20111;-61
2023/10/06 09:06:29;;;;;;;8.52;2.63;;;18.90;99.90;;;;;;5032782;28;20083;-61
2023/10/06 09:08:55;;;;;;;9.13;3.03;;;19.40;99.90;;;;;;5041893;28;20060;-61
2023/10/06 09:11:37;;;;;;;6.22;3.30;;;19.90;99.90;;;;;;5043589;28;20022;-61
2023/10/06 09:14:10;;;;;;;11.48;3.25;;;20.30;99.90;;;;;;5039156;28;20482;-61
2023/10/06 09:16:50;;;;;;;8.32;3.60;;;20.30;99.90;;;;;;5044577;28;20494;-61
2023/10/06 09:19:15;;;;;;;11.40;3.17;;;19.80;99.80;;;;;;5046026;28;20017;-58
2023/10/06 09:22:04;;;;;;;9.27;3.97;;;19.50;99.80;;;;;;5033731;28;20400;-58
2023/10/06 09:24:30;;;;;;;8.68;3.63;;;19.20;99.90;;;;;;5039718;28;20067;-58
2023/10/06 09:26:56;;;;;;;6.32;3.50;;;18.90;99.90;;;;;;5030030;28;20163;-59
2023/10/06 09:29:38;;;;;;;10.98;3.47;;;18.70;99.90;;;;;;5031963;28;20026;-58
2023/10/06 09:32:20;;;;;;;9.23;3.55;;;18.40;99.90;;;;;;5031524;28;20037;-58
2023/10/06 09:34:46;;;;;;;8.45;3.85;;;18.20;99.90;;;;;;5039752;28;20079;-58
2023/10/06 09:37:19;;;;;;;8.23;3.28;;;18.00;99.90;;;;;;5032757;28;20022;-58
2023/10/06 09:39:45;;;;;;;13.20;4.15;;;17.90;99.90;;;;;;5040188;28;20566;-60
2023/10/06 09:42:14;;;;;;;7.57;4.03;;;17.70;99.90;;;;;;5030831;28;20068;-60
2023/10/06 09:44:41;;;;;;;9.85;4.18;;;17.70;99.90;;;;;;5040129;28;20021;-60
2023/10/06 09:47:08;;;;;;;9.85;3.08;;;17.70;99.90;;;;;;5041855;28;20056;-60
2023/10/06 09:49:37;;;;;;;6.72;3.10;;;17.50;99.90;;;;;;5049814;28;20108;-60
2023/10/06 09:52:03;;;;;;;10.10;4.00;;;17.40;99.90;;;;;;5035548;28;20043;-60
2023/10/06 09:54:30;;;;;;;13.68;4.10;;;17.50;99.90;;;;;;5042903;28;20100;-60
2023/10/06 09:56:57;;;;;;;10.48;3.78;;;17.60;99.90;;;;;;5032136;28;20028;-59
2023/10/06 09:59:24;;;;;;;11.35;3.38;;;17.70;99.90;;;;;;5044948;28;20032;-59
2023/10/06 10:01:51;;;;;;;4.95;3.00;;;18.00;99.90;;;;;;5034061;28;20033;-59
2023/10/06 10:04:18;;;;;;;9.73;3.75;;;18.10;99.90;;;;;;5030479;28;20029;-59
2023/10/06 10:06:44;;;;;;;7.03;2.97;;;18.20;99.90;;;;;;5035537;28;20037;-59
2023/10/06 10:09:16;;;;;;;8.68;3.15;;;18.40;99.90;;;;;;5032115;28;20029;-59
2023/10/06 10:12:23;;;;;;;11.38;3.58;;;18.70;99.90;;;;;;5031530;28;20060;-60
2023/10/06 10:15:16;;;;;;;6.90;3.05;;;18.70;99.90;;;;;;5031144;28;20041;-60
2023/10/06 10:18:00;;;;;;;10.60;3.08;;;18.70;99.90;;;;;;5034709;28;20071;-59
2023/10/06 10:20:26;;;;;;;9.25;3.40;;;18.70;99.90;;;;;;5030654;28;20040;-60
2023/10/06 10:22:56;;;;;;;11.23;2.85;;;18.70;99.90;;;;;;5034930;28;20029;-59
2023/10/06 10:25:23;;;;;;;8.70;3.57;;;18.60;99.90;;;;;;5039857;28;20037;-60
2023/10/06 10:28:27;;;;;;;8.30;3.33;;;18.70;99.90;;;;;;5031145;28;20112;-60
2023/10/06 10:30:59;;;;;;;10.13;3.67;;;18.50;99.90;;;;;;4990548;28;20550;-60
2023/10/06 10:33:33;;;;;;;9.27;3.30;;;18.30;99.90;;;;;;5032996;28;20037;-59
2023/10/06 10:36:17;;;;;;;6.45;2.72;;;18.30;99.90;;;;;;5032450;28;20020;-60
2023/10/06 10:38:43;;;;;;;5.72;3.10;;;18.50;99.90;;;;;;5039605;28;20116;-60
2023/10/06 10:41:10;;;;;;;7.78;3.40;;;18.70;99.90;;;;;;5031874;28;20029;-59
2023/10/06 10:43:45;;;;;;;7.18;3.30;;;18.90;99.90;;;;;;5032165;28;20029;-59
2023/10/06 10:46:12;;;;;;;7.88;2.97;;;19.20;99.90;;;;;;5037894;28;20078;-60
2023/10/06 10:48:45;;;;;;;7.03;3.53;;;19.30;99.90;;;;;;5035714;28;20441;-59
2023/10/06 10:51:11;;;;;;;6.25;2.95;;;19.30;99.90;;;;;;5043952;28;20112;-59
2023/10/06 10:53:43;;;;;;;5.93;2.50;;;19.30;99.90;;;;;;5040213;28;20454;-59
2023/10/06 10:56:13;;;;;;;7.43;3.28;;;19.30;99.90;;;;;;5034767;28;20021;-59
2023/10/06 10:58:44;;;;;;;9.63;3.35;;;19.60;99.90;;;;;;5034370;28;20554;-59
2023/10/06 11:01:37;;;;;;;9.10;3.35;;;19.50;99.90;;;;;;5041825;28;20522;-59
2023/10/06 11:04:18;;;;;;;6.50;2.70;;;19.70;99.90;;;;;;5036447;28;20021;-60
2023/10/06 11:06:49;;;;;;;;;;;20.10;99.90;;;;;;5033387;28;20030;-59
2023/10/06 11:09:29;;;;;;;9.32;2.55;;;20.30;99.80;;;;;;5042921;28;19908;-59
2023/10/06 11:12:19;;;;;;;6.00;2.92;;;20.40;99.00;;;;;;5039365;28;20398;-60
2023/10/06 11:14:46;;;;;;;6.68;3.13;;;20.70;99.50;;;;;;5036670;28;20024;-59
2023/10/06 11:17:29;;;;;;;6.25;2.78;;;21.10;99.00;;;;;;5033021;28;20096;-59
2023/10/06 11:22:59;;;;;;;7.38;3.00;;;21.20;96.90;;;;;;5033281;28;20528;-60
2023/10/06 11:25:28;;;;;;;12.50;2.78;;;20.70;97.00;;;;;;5037726;28;20029;-61
2023/10/06 11:27:57;;;;;;;10.25;2.35;;;20.30;97.30;;;;;;5037976;28;20054;-60
2023/10/06 11:30:25;;;;;;;9.75;2.85;;;20.30;97.40;;;;;;5031612;28;20105;-61
2023/10/06 11:32:51;;;;;;;11.07;3.20;;;20.30;97.00;;;;;;5038658;28;20071;-60
2023/10/06 11:35:20;;;;;;;12.15;3.38;;;20.20;96.80;;;;;;5041447;28;20025;-60
2023/10/06 11:37:46;;;;;;;6.88;2.78;;;20.30;97.00;;;;;;5035404;28;20067;-60
2023/10/06 11:40:12;;;;;;;8.57;2.63;;;20.50;96.10;;;;;;5032313;28;20120;-60
2023/10/06 11:42:41;;;;;;;10.00;3.05;;;20.70;95.70;;;;;;5044478;28;20510;-60
2023/10/06 11:45:24;;;;;;;4.20;2.42;;;20.50;96.00;;;;;;5039854;28;20071;-60
2023/10/06 11:47:51;;;;;;;6.15;3.17;;;20.40;96.40;;;;;;5037777;28;20041;-60
2023/10/06 11:50:25;;;;;;;6.05;2.55;;;20.40;96.40;;;;;;5037969;28;20017;-60
2023/10/06 11:52:51;;;;;;;5.22;2.72;;;20.30;96.00;;;;;;5036019;28;20036;-60
2023/10/06 11:55:35;;;;;;;10.90;3.15;;;20.20;96.50;;;;;;5035897;28;20022;-60
2023/10/06 11:58:04;;;;;;;7.50;2.53;;;20.00;96.80;;;;;;5031062;28;20016;-60
2023/10/06 12:00:41;;;;;;;7.75;2.75;;;19.90;97.50;;;;;;5032358;28;20435;-60
2023/10/06 12:03:10;;;;;;;8.07;2.90;;;19.80;97.20;;;;;;5032302;28;20552;-60
2023/10/06 12:05:36;;;;;;;7.97;2.73;;;19.90;97.10;;;;;;5033090;28;20029;-60
2023/10/06 12:08:08;;;;;;;13.05;3.17;;;19.90;97.20;;;;;;5033581;28;20036;-60
2023/10/06 12:10:46;;;;;;;7.45;2.70;;;20.10;97.40;;;;;;5032854;28;20305;-60
2023/10/06 12:13:11;;;;;;;6.93;3.00;;;20.40;96.20;;;;;;5030837;28;20022;-60
2023/10/06 12:15:37;;;;;;;5.28;2.67;;;20.10;96.40;;;;;;5045825;28;20036;-60
2023/10/06 12:18:04;;;;;;;5.93;2.47;;;20.00;96.90;;;;;;5033423;28;20479;-60
2023/10/06 12:20:29;;;;;;;8.27;2.67;;;20.00;97.50;;;;;;5032573;28;20017;-60
2023/10/06 12:22:55;;;;;;;4.95;2.50;;;19.90;96.90;;;;;;5035196;28;20084;-60
2023/10/06 12:25:25;;;;;;;6.05;2.60;;;19.80;96.90;;;;;;5038452;28;20044;-60
2023/10/06 12:27:51;;;;;;;7.78;2.58;;;19.70;97.40;;;;;;5040793;28;20037;-60
2023/10/06 12:30:17;;;;;;;5.32;2.40;;;19.80;97.50;;;;;;5032465;28;20403;-60
2023/10/06 12:32:45;;;;;;;17.85;2.75;;;20.10;97.10;;;;;;5040193;28;20048;-60
2023/10/06 12:35:11;;;;;;;6.90;2.40;;;20.50;97.10;;;;;;5033413;28;20022;-60
2023/10/06 12:37:40;;;;;;;6.70;2.80;;;20.40;96.30;;;;;;5033517;28;20040;-60
2023/10/06 12:40:09;;;;;;;7.90;2.73;;;20.40;95.80;;;;;;5039212;28;20025;-60
2023/10/06 12:42:36;;;;;;;9.63;3.17;;;20.10;96.00;;;;;;5035518;28;20329;-60
2023/10/06 12:45:02;;;;;;;6.47;2.60;;;20.00;96.00;;;;;;5037002;28;20041;-60
2023/10/06 12:47:28;;;;;;;4.35;2.33;;;20.20;96.00;;;;;;5036655;28;20120;-60
2023/10/06 12:49:58;;;;;;;8.55;2.97;;;20.30;95.80;;;;;;5044732;28;20033;-60
2023/10/06 12:52:23;;;;;;;5.60;2.57;;;20.40;95.10;;;;;;5041859;28;20491;-60
2023/10/06 12:54:49;;;;;;;8.73;2.63;;;20.30;95.50;;;;;;5046753;28;20490;-60
2023/10/06 12:57:14;;;;;;;6.13;2.55;;;20.40;95.60;;;;;;5042328;28;20088;-60